createdAt,value
2022-10-23T00:01:20.033Z,6.97
2022-10-23T00:03:52.359Z,6.32
2022-10-23T00:06:23.383Z,6.28
2022-10-23T00:08:53.255Z,6.57
2022-10-23T00:11:27.132Z,7.30
2022-10-23T00:13:59.531Z,7.22
2022-10-23T00:16:31.644Z,6.63
2022-10-23T00:19:01.786Z,6.82
2022-10-23T00:21:31.954Z,6.47
2022-10-23T00:24:01.715Z,6.50
2022-10-23T00:26:34.222Z,6.57
2022-10-23T00:29:03.167Z,7.07
2022-10-23T00:31:32.356Z,6.55
2022-10-23T00:34:01.266Z,7.05
2022-10-23T00:36:30.262Z,7.20
2022-10-23T00:39:00.601Z,6.78
2022-10-23T00:41:34.970Z,7.18
2022-10-23T00:44:10.378Z,6.53
2022-10-23T00:46:42.249Z,7.32
2022-10-23T00:49:14.026Z,7.80
2022-10-23T00:51:47.474Z,7.82
2022-10-23T00:54:25.033Z,7.80
2022-10-23T00:56:59.586Z,8.80
2022-10-23T00:59:30.120Z,8.35
2022-10-23T01:02:01.686Z,8.52
2022-10-23T01:04:30.409Z,9.18
2022-10-23T01:07:07.719Z,8.10
2022-10-23T01:09:41.611Z,9.15
2022-10-23T01:12:20.146Z,8.68
2022-10-23T01:14:55.122Z,8.68
2022-10-23T01:17:31.056Z,9.07
2022-10-23T01:20:07.694Z,8.43
2022-10-23T01:22:46.787Z,9.23
2022-10-23T01:25:22.979Z,9.10
2022-10-23T01:27:55.124Z,9.35
2022-10-23T01:30:26.197Z,8.88
2022-10-23T01:32:59.278Z,9.38
2022-10-23T01:35:31.872Z,8.30
2022-10-23T01:38:06.020Z,9.00
2022-10-23T01:40:36.073Z,8.93
2022-10-23T01:43:08.513Z,9.30
2022-10-23T01:45:39.612Z,9.77
2022-10-23T01:48:10.297Z,11.48
2022-10-23T01:50:40.401Z,9.65
2022-10-23T01:53:10.413Z,8.57
2022-10-23T01:58:12.542Z,9.20
2022-10-23T02:00:42.228Z,9.98
2022-10-23T02:03:11.024Z,9.27
2022-10-23T02:05:39.998Z,9.70
2022-10-23T02:08:19.048Z,9.80
2022-10-23T02:10:51.721Z,10.25
2022-10-23T02:13:27.418Z,10.25
2022-10-23T02:16:00.356Z,10.13
2022-10-23T02:18:35.854Z,9.73
2022-10-23T02:21:07.642Z,10.45
2022-10-23T02:23:38.551Z,9.65
2022-10-23T02:26:09.234Z,10.00
2022-10-23T02:28:41.737Z,9.48
2022-10-23T02:31:34.551Z,10.80
2022-10-23T02:34:06.230Z,9.57
2022-10-23T02:36:34.595Z,9.48
2022-10-23T02:39:04.142Z,9.97
2022-10-23T02:41:38.710Z,10.13
2022-10-23T02:44:27.837Z,10.05
2022-10-23T02:47:02.272Z,10.00
2022-10-23T02:49:34.947Z,11.07
2022-10-23T02:52:08.185Z,10.02
2022-10-23T02:54:44.481Z,10.50
2022-10-23T02:57:18.340Z,10.38
2022-10-23T02:59:53.558Z,9.00
2022-10-23T03:02:25.886Z,10.38
2022-10-23T03:04:57.297Z,9.90
2022-10-23T03:07:27.396Z,9.60
2022-10-23T03:09:56.660Z,7.88
2022-10-23T03:12:27.176Z,7.88
2022-10-23T03:14:58.124Z,9.32
2022-10-23T03:17:28.153Z,8.43
2022-10-23T03:19:57.337Z,7.63
2022-10-23T03:22:26.660Z,8.70
2022-10-23T03:24:55.951Z,8.15
2022-10-23T03:27:24.196Z,9.38
2022-10-23T03:29:53.157Z,10.27
2022-10-23T03:32:23.591Z,10.57
2022-10-23T03:34:52.513Z,10.18
2022-10-23T03:37:21.733Z,8.60
2022-10-23T03:39:51.240Z,8.07
2022-10-23T03:42:22.642Z,8.52
2022-10-23T03:44:51.488Z,7.78
2022-10-23T03:47:21.856Z,8.83
2022-10-23T03:49:52.282Z,9.35
2022-10-23T03:54:51.750Z,9.07
2022-10-23T03:57:22.645Z,8.02
2022-10-23T03:59:51.653Z,8.57
2022-10-23T04:02:21.028Z,9.88
2022-10-23T04:04:50.557Z,9.20
2022-10-23T04:07:22.568Z,8.48
2022-10-23T04:09:52.811Z,9.85
2022-10-23T04:12:22.851Z,8.63
2022-10-23T04:14:53.367Z,9.05
2022-10-23T04:19:52.414Z,9.40
2022-10-23T04:22:24.787Z,8.85
2022-10-23T04:24:56.430Z,9.32
2022-10-23T04:27:25.321Z,9.63
2022-10-23T04:29:58.283Z,10.23
2022-10-23T04:32:28.632Z,9.82
2022-10-23T04:34:57.091Z,9.93
2022-10-23T04:37:28.376Z,9.90
2022-10-23T04:39:57.004Z,9.85
2022-10-23T04:44:55.152Z,9.50
2022-10-23T04:47:24.049Z,9.20
2022-10-23T04:52:23.134Z,10.80
2022-10-23T04:54:54.400Z,10.32
2022-10-23T04:57:25.720Z,10.65
2022-10-23T04:59:56.318Z,10.25
2022-10-23T05:02:25.620Z,11.73
2022-10-23T05:04:55.022Z,11.02
2022-10-23T05:07:27.344Z,12.73
2022-10-23T05:09:57.628Z,11.07
2022-10-23T05:12:30.337Z,10.32
2022-10-23T05:15:01.436Z,10.35
2022-10-23T05:17:33.605Z,10.48
2022-10-23T05:20:02.953Z,9.82
2022-10-23T05:22:33.623Z,11.85
2022-10-23T05:25:04.063Z,12.70
2022-10-23T05:27:33.541Z,10.02
2022-10-23T05:30:02.609Z,10.85
2022-10-23T05:32:32.743Z,12.25
2022-10-23T05:35:02.959Z,12.35
2022-10-23T05:37:34.424Z,11.95
2022-10-23T05:40:05.908Z,12.25
2022-10-23T05:42:37.131Z,13.27
2022-10-23T05:45:08.502Z,14.80
2022-10-23T05:47:37.441Z,15.70
2022-10-23T05:50:07.520Z,15.75
2022-10-23T05:52:37.595Z,14.55
2022-10-23T05:55:09.480Z,15.63
2022-10-23T05:57:42.051Z,16.08
2022-10-23T06:00:12.047Z,18.13
2022-10-23T06:02:41.729Z,16.90
2022-10-23T06:05:10.601Z,16.25
2022-10-23T06:07:39.737Z,17.42
2022-10-23T06:10:12.519Z,14.93
2022-10-23T06:12:41.691Z,17.98
2022-10-23T06:15:11.728Z,17.90
2022-10-23T06:17:42.335Z,19.65
2022-10-23T06:20:11.531Z,19.90
2022-10-23T06:22:40.416Z,18.42
2022-10-23T06:27:39.617Z,16.98
2022-10-23T06:30:09.677Z,18.25
2022-10-23T06:32:38.548Z,18.17
2022-10-23T06:35:08.714Z,19.30
2022-10-23T06:37:37.205Z,16.88
2022-10-23T06:40:06.806Z,14.65
2022-10-23T06:42:35.112Z,17.13
2022-10-23T06:45:07.656Z,18.58
2022-10-23T06:47:36.345Z,17.48
2022-10-23T06:50:06.279Z,18.90
2022-10-23T06:52:46.608Z,16.35
2022-10-23T06:55:16.019Z,15.75
2022-10-23T06:57:44.826Z,14.20
2022-10-23T07:00:17.571Z,15.02
2022-10-23T07:02:46.973Z,16.20
2022-10-23T07:05:16.203Z,16.20
2022-10-23T07:07:44.832Z,15.70
2022-10-23T07:12:44.639Z,12.80
2022-10-23T07:15:13.532Z,15.35
2022-10-23T07:17:44.168Z,14.30
2022-10-23T07:20:12.517Z,14.60
2022-10-23T07:22:41.159Z,13.63
2022-10-23T07:25:14.542Z,15.32
2022-10-23T07:27:44.233Z,14.68
2022-10-23T07:30:14.151Z,15.95
2022-10-23T07:32:58.138Z,15.15
2022-10-23T07:35:33.116Z,13.05
2022-10-23T07:38:06.440Z,13.60
2022-10-23T07:40:37.448Z,14.20
2022-10-23T07:43:06.809Z,14.30
2022-10-23T07:45:39.702Z,15.05
2022-10-23T07:48:12.393Z,14.45
2022-10-23T07:50:42.538Z,13.48
2022-10-23T07:53:19.392Z,13.32
2022-10-23T07:55:56.763Z,13.00
2022-10-23T07:58:28.145Z,11.27
2022-10-23T08:00:58.770Z,12.65
2022-10-23T08:03:30.319Z,11.98
2022-10-23T08:06:00.953Z,12.20
2022-10-23T08:08:33.317Z,13.48
2022-10-23T08:11:02.307Z,12.18
2022-10-23T08:13:31.297Z,13.07
2022-10-23T08:16:00.805Z,12.50
2022-10-23T08:21:01.313Z,12.38
2022-10-23T08:23:29.796Z,12.77
2022-10-23T08:26:00.343Z,12.93
2022-10-23T08:28:29.956Z,11.60
2022-10-23T08:30:58.502Z,11.85
2022-10-23T08:33:27.972Z,9.98
2022-10-23T08:38:28.333Z,9.80
2022-10-23T08:40:57.244Z,8.52
2022-10-23T08:43:31.479Z,8.38
2022-10-23T08:46:04.193Z,7.30
2022-10-23T08:48:37.661Z,10.85
2022-10-23T08:51:10.393Z,6.78
2022-10-23T08:53:43.346Z,6.50
2022-10-23T08:56:15.407Z,5.13
2022-10-23T08:58:47.636Z,4.50
2022-10-23T09:01:33.558Z,3.92
2022-10-23T09:04:03.213Z,3.83
2022-10-23T09:06:36.823Z,3.25
2022-10-23T09:09:15.015Z,2.90
2022-10-23T09:11:47.749Z,2.90
2022-10-23T09:14:27.858Z,2.67
2022-10-23T09:17:03.743Z,2.38
2022-10-23T09:19:33.273Z,2.50
2022-10-23T09:22:04.702Z,2.50
2022-10-23T09:24:37.042Z,2.15
2022-10-23T09:27:07.189Z,2.00
2022-10-23T09:29:36.495Z,1.92
2022-10-23T09:32:07.108Z,2.00
2022-10-23T09:34:36.155Z,2.00
2022-10-23T09:37:06.361Z,1.90
2022-10-23T09:39:37.421Z,1.52
2022-10-23T09:42:16.951Z,1.40
2022-10-23T09:44:50.270Z,1.20
2022-10-23T09:47:21.053Z,1.17
2022-10-23T09:49:51.827Z,1.25
2022-10-23T09:52:31.183Z,1.00
2022-10-23T09:55:01.782Z,1.00
2022-10-23T09:57:33.282Z,0.93
2022-10-23T10:00:03.576Z,1.42
2022-10-23T10:02:33.764Z,0.90
2022-10-23T10:05:13.289Z,1.02
2022-10-23T10:07:43.451Z,1.08
2022-10-23T10:10:16.209Z,1.10
2022-10-23T10:12:48.949Z,1.30
2022-10-23T10:15:24.312Z,1.20
2022-10-23T10:17:58.614Z,1.10
2022-10-23T10:20:47.600Z,1.20
2022-10-23T10:23:19.905Z,1.38
2022-10-23T10:25:57.354Z,1.35
2022-10-23T10:28:33.168Z,1.50
2022-10-23T10:31:07.540Z,1.40
2022-10-23T10:33:38.661Z,1.25
2022-10-23T10:36:14.846Z,1.88
2022-10-23T10:38:46.488Z,1.35
2022-10-23T10:41:29.089Z,1.60
2022-10-23T10:44:08.965Z,1.50
2022-10-23T10:46:40.635Z,1.50
2022-10-23T10:49:14.497Z,1.88
2022-10-23T10:51:48.078Z,1.80
2022-10-23T10:54:22.123Z,1.48
2022-10-23T10:56:52.697Z,1.75
2022-10-23T10:59:24.712Z,1.60
2022-10-23T11:01:57.902Z,1.42
2022-10-23T11:04:32.313Z,1.75
2022-10-23T11:07:04.831Z,4.88
2022-10-23T11:09:34.049Z,2.28
2022-10-23T11:12:03.963Z,1.70
2022-10-23T11:14:34.490Z,1.52
2022-10-23T11:17:06.618Z,1.80
2022-10-23T11:19:38.157Z,1.63
2022-10-23T11:22:11.913Z,1.52
2022-10-23T11:24:50.784Z,1.58
2022-10-23T11:27:30.646Z,1.30
2022-10-23T11:30:17.854Z,1.80
2022-10-23T11:33:06.837Z,1.70
2022-10-23T11:35:45.917Z,1.48
2022-10-23T11:38:18.290Z,1.50
2022-10-23T11:40:48.279Z,1.23
2022-10-23T11:43:31.168Z,1.50
2022-10-23T11:46:14.145Z,1.70
2022-10-23T11:48:43.198Z,1.30
2022-10-23T11:51:31.683Z,1.35
2022-10-23T11:54:22.699Z,1.60
2022-10-23T11:57:09.230Z,1.30
2022-10-23T11:59:44.849Z,1.40
2022-10-23T12:02:23.742Z,1.10
2022-10-23T12:04:53.552Z,1.50
2022-10-23T12:07:24.687Z,1.30
2022-10-23T12:09:58.040Z,1.10
2022-10-23T12:12:32.273Z,1.30
2022-10-23T12:15:24.531Z,1.17
2022-10-23T12:17:56.038Z,1.13
2022-10-23T12:20:27.360Z,1.25
2022-10-23T12:23:14.044Z,1.13
2022-10-23T12:25:48.185Z,1.17
2022-10-23T12:28:24.569Z,1.17
2022-10-23T12:30:57.047Z,1.10
2022-10-23T12:33:32.407Z,1.00
2022-10-23T12:36:13.153Z,1.00
2022-10-23T12:38:45.968Z,1.00
2022-10-23T12:41:16.365Z,1.17
2022-10-23T12:43:48.297Z,0.82
2022-10-23T12:46:31.795Z,0.90
2022-10-23T12:49:05.383Z,1.20
2022-10-23T12:51:35.163Z,1.20
2022-10-23T12:54:05.156Z,0.90
2022-10-23T12:56:36.542Z,1.00
2022-10-23T12:59:07.982Z,1.10
2022-10-23T13:01:40.409Z,0.90
2022-10-23T13:06:53.579Z,0.73
2022-10-23T13:09:27.096Z,1.00
2022-10-23T13:11:56.633Z,1.00
2022-10-23T13:14:30.141Z,0.90
2022-10-23T13:17:00.953Z,1.00
2022-10-23T13:19:31.734Z,1.30
2022-10-23T13:22:00.335Z,1.25
2022-10-23T13:24:31.605Z,0.82
2022-10-23T13:27:00.964Z,1.33
2022-10-23T13:29:31.732Z,0.77
2022-10-23T13:32:12.487Z,0.70
2022-10-23T13:35:03.770Z,1.00
2022-10-23T13:37:34.637Z,0.82
2022-10-23T13:40:06.409Z,0.95
2022-10-23T13:42:35.146Z,1.13
2022-10-23T13:45:06.781Z,0.93
2022-10-23T13:47:35.556Z,0.68
2022-10-23T13:50:12.313Z,0.65
2022-10-23T13:52:41.825Z,1.00
2022-10-23T13:55:18.381Z,0.77
2022-10-23T13:57:46.854Z,0.95
2022-10-23T14:00:17.090Z,1.00
2022-10-23T14:02:46.684Z,1.02
2022-10-23T14:05:19.201Z,0.85
2022-10-23T14:07:47.757Z,0.80
2022-10-23T14:10:16.181Z,0.80
2022-10-23T14:12:46.260Z,0.90
2022-10-23T14:15:16.032Z,0.70
2022-10-23T14:17:47.139Z,0.80
2022-10-23T14:20:19.253Z,0.70
2022-10-23T14:22:49.101Z,0.52
2022-10-23T14:25:17.616Z,0.90
2022-10-23T14:27:46.869Z,1.30
2022-10-23T14:30:16.187Z,0.88
2022-10-23T14:32:46.363Z,0.70
2022-10-23T14:35:15.217Z,0.80
2022-10-23T14:37:47.112Z,0.85
2022-10-23T14:40:16.570Z,0.80
2022-10-23T14:42:46.018Z,1.10
2022-10-23T14:45:18.089Z,1.10
2022-10-23T14:47:46.529Z,1.10
2022-10-23T14:50:15.482Z,1.60
2022-10-23T14:52:45.336Z,1.02
2022-10-23T14:55:13.970Z,1.00
2022-10-23T14:57:42.566Z,0.93
2022-10-23T15:00:11.880Z,2.08
2022-10-23T15:02:40.602Z,3.30
2022-10-23T15:05:13.492Z,3.20
2022-10-23T15:07:41.939Z,2.75
2022-10-23T15:10:12.705Z,3.60
2022-10-23T15:12:41.038Z,3.08
2022-10-23T15:15:09.910Z,2.33
2022-10-23T15:17:39.398Z,2.20
2022-10-23T15:20:08.942Z,3.55
2022-10-23T15:22:37.302Z,2.95
2022-10-23T15:25:06.188Z,1.37
2022-10-23T15:27:36.222Z,1.25
2022-10-23T15:30:05.360Z,1.38
2022-10-23T15:32:33.934Z,1.10
2022-10-23T15:35:02.744Z,1.20
2022-10-23T15:37:31.184Z,0.90
2022-10-23T15:40:02.190Z,1.30
2022-10-23T15:42:31.482Z,1.20
2022-10-23T15:45:01.670Z,1.58
2022-10-23T15:47:30.237Z,1.63
2022-10-23T15:49:58.788Z,1.77
2022-10-23T15:52:26.933Z,2.03
2022-10-23T15:54:56.530Z,2.00
2022-10-23T15:57:24.919Z,1.67
2022-10-23T15:59:54.083Z,1.50
2022-10-23T16:02:24.503Z,3.40
2022-10-23T16:04:53.436Z,2.45
2022-10-23T16:07:23.638Z,2.53
2022-10-23T16:09:54.652Z,2.17
2022-10-23T16:12:24.329Z,1.92
2022-10-23T16:14:53.426Z,2.75
2022-10-23T16:17:25.057Z,5.28
2022-10-23T16:19:54.167Z,5.35
2022-10-23T16:22:23.590Z,3.28
2022-10-23T16:24:52.374Z,3.90
2022-10-23T16:27:20.941Z,3.47
2022-10-23T16:29:49.988Z,3.38
2022-10-23T16:32:19.193Z,3.72
2022-10-23T16:34:50.132Z,3.15
2022-10-23T16:37:18.726Z,4.43
2022-10-23T16:39:47.342Z,5.05
2022-10-23T16:44:45.642Z,4.90
2022-10-23T16:47:15.853Z,5.85
2022-10-23T16:49:44.780Z,4.53
2022-10-23T16:52:16.205Z,4.70
2022-10-23T16:54:44.833Z,7.00
2022-10-23T16:57:14.833Z,5.72
2022-10-23T16:59:43.895Z,8.68
2022-10-23T17:02:16.352Z,5.10
2022-10-23T17:04:45.970Z,7.85
2022-10-23T17:07:16.741Z,7.18
2022-10-23T17:09:46.866Z,6.28
2022-10-23T17:12:16.552Z,6.22
2022-10-23T17:14:46.141Z,5.47
2022-10-23T17:17:15.327Z,6.55
2022-10-23T17:19:45.932Z,6.38
2022-10-23T17:22:18.313Z,6.70
2022-10-23T17:24:50.155Z,7.25
2022-10-23T17:27:22.982Z,8.27
2022-10-23T17:29:51.157Z,8.80
2022-10-23T17:34:50.376Z,9.27
2022-10-23T17:39:50.333Z,10.13
2022-10-23T17:42:19.577Z,10.02
2022-10-23T17:44:49.486Z,8.45
2022-10-23T17:47:19.762Z,11.43
2022-10-23T17:49:48.908Z,11.63
2022-10-23T17:52:19.167Z,14.27
2022-10-23T17:54:47.815Z,14.40
2022-10-23T17:57:18.900Z,12.73
2022-10-23T17:59:48.366Z,10.57
2022-10-23T18:02:18.185Z,13.05
2022-10-23T18:04:49.251Z,13.68
2022-10-23T18:07:18.559Z,14.77
2022-10-23T18:09:47.643Z,15.88
2022-10-23T18:12:18.377Z,15.65
2022-10-23T18:14:48.581Z,17.83
2022-10-23T18:17:17.521Z,19.02
2022-10-23T18:19:45.766Z,16.42
2022-10-23T18:22:15.478Z,16.57
2022-10-23T18:24:44.929Z,19.45
2022-10-23T18:27:13.536Z,22.85
2022-10-23T18:29:44.188Z,21.85
2022-10-23T18:32:14.632Z,21.15
2022-10-23T18:34:43.328Z,18.08
2022-10-23T18:37:12.516Z,20.38
2022-10-23T18:39:41.825Z,19.08
2022-10-23T18:42:11.282Z,22.20
2022-10-23T18:44:40.090Z,21.50
2022-10-23T18:47:10.987Z,17.63
2022-10-23T18:49:40.046Z,18.38
2022-10-23T18:52:10.139Z,23.77
2022-10-23T18:54:39.311Z,22.65
2022-10-23T18:57:08.386Z,26.92
2022-10-23T18:59:41.032Z,21.42
2022-10-23T19:02:14.724Z,24.58
2022-10-23T19:04:44.057Z,18.92
2022-10-23T19:07:15.090Z,17.45
2022-10-23T19:09:43.693Z,17.73
2022-10-23T19:14:43.549Z,19.23
2022-10-23T19:17:17.405Z,22.88
2022-10-23T19:19:47.281Z,22.45
2022-10-23T19:22:17.194Z,17.98
2022-10-23T19:24:46.856Z,21.85
2022-10-23T19:27:15.642Z,21.40
2022-10-23T19:29:45.094Z,20.92
2022-10-23T19:32:16.421Z,22.00
2022-10-23T19:34:45.852Z,22.55
2022-10-23T19:37:16.376Z,22.13
2022-10-23T19:39:48.277Z,19.00
2022-10-23T19:42:18.776Z,19.70
2022-10-23T19:44:48.467Z,19.40
2022-10-23T19:47:18.886Z,18.40
2022-10-23T19:49:51.353Z,20.90
2022-10-23T19:52:20.111Z,20.42
2022-10-23T19:54:48.241Z,23.57
2022-10-23T19:57:19.275Z,21.80
2022-10-23T19:59:51.651Z,20.35
2022-10-23T20:02:22.798Z,19.38
2022-10-23T20:04:51.964Z,19.55
2022-10-23T20:07:21.911Z,19.45
2022-10-23T20:12:20.663Z,18.65
2022-10-23T20:14:49.099Z,18.98
2022-10-23T20:17:17.937Z,19.20
2022-10-23T20:19:49.111Z,21.88
2022-10-23T20:22:18.172Z,22.60
2022-10-23T20:24:46.574Z,20.20
2022-10-23T20:27:17.146Z,19.90
2022-10-23T20:29:46.356Z,17.50
2022-10-23T20:32:15.932Z,17.85
2022-10-23T20:34:45.812Z,17.48
2022-10-23T20:37:17.072Z,17.33
2022-10-23T20:39:45.578Z,20.65
2022-10-23T20:42:15.152Z,24.10
2022-10-23T20:44:46.659Z,25.50
2022-10-23T20:47:15.777Z,23.65
2022-10-23T20:49:44.910Z,25.08
2022-10-23T20:52:13.553Z,22.40
2022-10-23T20:54:43.900Z,22.52
2022-10-23T20:57:14.866Z,22.65
2022-10-23T20:59:45.802Z,22.25
2022-10-23T21:02:14.545Z,21.48
2022-10-23T21:04:42.886Z,21.60
2022-10-23T21:07:11.828Z,24.77
2022-10-23T21:09:40.150Z,23.67
2022-10-23T21:12:10.631Z,23.45
2022-10-23T21:14:40.877Z,23.58
2022-10-23T21:17:14.203Z,23.08
2022-10-23T21:19:43.314Z,17.58
2022-10-23T21:22:12.079Z,18.70
2022-10-23T21:24:41.111Z,20.23
2022-10-23T21:27:11.951Z,22.80
2022-10-23T21:29:41.031Z,23.05
2022-10-23T21:32:10.242Z,19.27
2022-10-23T21:34:39.705Z,19.83
2022-10-23T21:37:13.879Z,19.25
2022-10-23T21:39:43.161Z,21.77
2022-10-23T21:42:13.772Z,20.30
2022-10-23T21:44:43.337Z,21.08
2022-10-23T21:47:12.196Z,19.85
2022-10-23T21:49:41.654Z,19.48
2022-10-23T21:52:14.026Z,19.60
2022-10-23T21:54:45.950Z,21.02
2022-10-23T21:57:16.711Z,21.30
2022-10-23T21:59:45.492Z,20.15
2022-10-23T22:02:16.098Z,20.20
2022-10-23T22:04:45.960Z,18.55
2022-10-23T22:07:15.561Z,18.55
2022-10-23T22:09:44.996Z,18.02
2022-10-23T22:12:14.499Z,20.42
2022-10-23T22:14:44.972Z,19.30
2022-10-23T22:17:15.242Z,19.65
2022-10-23T22:19:44.125Z,19.10
2022-10-23T22:22:13.493Z,18.33
2022-10-23T22:24:42.200Z,15.80
2022-10-23T22:27:11.106Z,16.40
2022-10-23T22:29:39.384Z,16.63
2022-10-23T22:32:12.626Z,14.80
2022-10-23T22:34:52.193Z,15.20
2022-10-23T22:37:22.767Z,17.85
2022-10-23T22:39:53.571Z,16.00
2022-10-23T22:42:22.148Z,14.98
2022-10-23T22:44:58.510Z,16.20
2022-10-23T22:47:30.951Z,16.58
2022-10-23T22:50:00.718Z,16.55
2022-10-23T22:52:31.304Z,16.00
2022-10-23T22:55:00.291Z,16.63
2022-10-23T22:59:57.742Z,15.35
2022-10-23T23:02:26.787Z,14.47
2022-10-23T23:04:56.571Z,15.40
2022-10-23T23:07:25.348Z,12.35
2022-10-23T23:09:54.151Z,14.02
2022-10-23T23:12:22.997Z,13.15
2022-10-23T23:14:51.716Z,13.48
2022-10-23T23:17:20.079Z,17.10
2022-10-23T23:19:49.028Z,15.85
2022-10-23T23:22:19.810Z,15.75
2022-10-23T23:24:48.378Z,15.80
2022-10-23T23:27:16.971Z,15.77
2022-10-23T23:29:45.015Z,15.10
2022-10-23T23:32:13.894Z,15.13
2022-10-23T23:34:42.558Z,16.15
2022-10-23T23:37:11.709Z,17.50
2022-10-23T23:39:42.548Z,15.90
2022-10-23T23:42:11.469Z,13.65
2022-10-23T23:44:50.236Z,14.88
2022-10-23T23:47:28.780Z,16.25
2022-10-23T23:49:57.271Z,16.73
2022-10-23T23:52:26.509Z,17.42
2022-10-23T23:54:56.841Z,17.15
2022-10-23T23:57:26.604Z,15.60
2022-10-23T23:59:55.487Z,15.27
